createdAt,value
2023-02-19T00:00:00.321Z,3.30
2023-02-19T00:02:28.075Z,3.30
2023-02-19T00:04:55.331Z,3.20
2023-02-19T00:07:22.412Z,3.20
2023-02-19T00:09:49.504Z,3.20
2023-02-19T00:12:16.614Z,3.20
2023-02-19T00:14:43.717Z,3.20
2023-02-19T00:17:10.768Z,3.10
2023-02-19T00:19:37.872Z,3.20
2023-02-19T00:22:04.957Z,3.30
2023-02-19T00:24:32.050Z,3.30
2023-02-19T00:26:59.112Z,3.20
2023-02-19T00:29:26.158Z,3.30
2023-02-19T00:31:54.703Z,3.30
2023-02-19T00:34:21.855Z,3.30
2023-02-19T00:36:48.929Z,3.30
2023-02-19T00:39:18.425Z,3.20
2023-02-19T00:41:46.489Z,3.30
2023-02-19T00:44:14.138Z,3.30
2023-02-19T00:46:45.015Z,3.30
2023-02-19T00:49:20.942Z,3.30
2023-02-19T00:51:48.617Z,3.30
2023-02-19T00:54:16.424Z,3.30
2023-02-19T00:56:43.923Z,3.30
2023-02-19T00:59:11.317Z,3.30
2023-02-19T01:01:38.991Z,3.30
2023-02-19T01:04:07.027Z,3.30
2023-02-19T01:06:35.601Z,3.40
2023-02-19T01:09:05.052Z,3.30
2023-02-19T01:11:32.193Z,3.30
2023-02-19T01:14:01.416Z,3.30
2023-02-19T01:16:29.234Z,3.40
2023-02-19T01:18:57.755Z,3.30
2023-02-19T01:21:28.035Z,3.30
2023-02-19T01:23:55.878Z,3.40
2023-02-19T01:26:29.369Z,3.40
2023-02-19T01:28:59.942Z,3.30
2023-02-19T01:31:28.472Z,3.40
2023-02-19T01:33:59.590Z,3.40
2023-02-19T01:36:28.490Z,3.40
2023-02-19T01:38:56.293Z,3.40
2023-02-19T01:41:25.793Z,3.40
2023-02-19T01:44:11.446Z,3.40
2023-02-19T01:46:41.469Z,3.40
2023-02-19T01:49:23.980Z,3.40
2023-02-19T01:52:06.096Z,3.30
2023-02-19T01:54:37.631Z,3.30
2023-02-19T01:57:09.687Z,3.30
2023-02-19T01:59:38.199Z,3.30
2023-02-19T02:02:06.279Z,3.40
2023-02-19T02:04:34.091Z,3.40
2023-02-19T02:07:24.575Z,3.40
2023-02-19T02:10:10.946Z,3.40
2023-02-19T02:12:38.117Z,3.40
2023-02-19T02:15:06.088Z,3.50
2023-02-19T02:18:19.939Z,3.50
2023-02-19T02:21:04.693Z,3.50
2023-02-19T02:24:14.953Z,3.50
2023-02-19T02:27:02.778Z,3.50
2023-02-19T02:30:03.892Z,3.50
2023-02-19T02:32:53.459Z,3.50
2023-02-19T02:35:28.234Z,3.50
2023-02-19T02:38:02.426Z,3.50
2023-02-19T02:40:31.378Z,3.50
2023-02-19T02:43:01.022Z,3.50
2023-02-19T02:45:36.308Z,3.50
2023-02-19T02:48:18.643Z,3.50
2023-02-19T02:51:03.329Z,3.50
2023-02-19T02:53:59.631Z,3.50
2023-02-19T02:56:27.322Z,3.50
2023-02-19T02:58:56.602Z,3.50
2023-02-19T03:01:55.649Z,3.50
2023-02-19T03:05:13.561Z,3.50
2023-02-19T03:07:49.835Z,3.60
2023-02-19T03:10:26.324Z,3.50
2023-02-19T03:13:15.477Z,3.60
2023-02-19T03:16:18.617Z,3.50
2023-02-19T03:19:09.285Z,3.60
2023-02-19T03:21:39.528Z,3.60
2023-02-19T03:24:29.979Z,3.60
2023-02-19T03:27:02.260Z,3.60
2023-02-19T03:29:38.107Z,3.60
2023-02-19T03:32:26.874Z,3.60
2023-02-19T03:35:18.164Z,3.60
2023-02-19T03:37:56.923Z,3.60
2023-02-19T03:40:29.910Z,3.60
2023-02-19T03:43:30.051Z,3.60
2023-02-19T03:46:14.367Z,3.50
2023-02-19T03:49:06.045Z,3.60
2023-02-19T03:51:51.397Z,3.60
2023-02-19T03:55:08.683Z,3.50
2023-02-19T03:57:58.804Z,3.60
2023-02-19T04:00:51.122Z,3.60
2023-02-19T04:03:37.708Z,3.60
2023-02-19T04:06:14.012Z,3.50
2023-02-19T04:08:47.503Z,3.50
2023-02-19T04:11:17.112Z,3.50
2023-02-19T04:13:56.872Z,3.50
2023-02-19T04:16:29.118Z,3.50
2023-02-19T04:19:04.075Z,3.50
2023-02-19T04:21:33.871Z,3.60
2023-02-19T04:24:09.054Z,3.60
2023-02-19T04:26:36.512Z,3.60
2023-02-19T04:29:03.681Z,3.60
2023-02-19T04:31:35.283Z,3.60
2023-02-19T04:34:03.871Z,3.50
2023-02-19T04:36:34.509Z,3.50
2023-02-19T04:39:01.615Z,3.60
2023-02-19T04:41:28.692Z,3.50
2023-02-19T04:43:55.848Z,3.50
2023-02-19T04:46:23.017Z,3.60
2023-02-19T04:48:50.135Z,3.50
2023-02-19T04:51:17.276Z,3.50
2023-02-19T04:53:44.434Z,3.50
2023-02-19T04:56:14.820Z,3.50
2023-02-19T04:58:43.149Z,3.50
2023-02-19T05:01:11.339Z,3.50
2023-02-19T05:03:38.906Z,3.50
2023-02-19T05:06:09.235Z,3.50
2023-02-19T05:08:37.072Z,3.50
2023-02-19T05:11:07.843Z,3.50
2023-02-19T05:13:35.044Z,3.50
2023-02-19T05:16:10.446Z,3.50
2023-02-19T05:18:37.591Z,3.50
2023-02-19T05:21:05.284Z,3.50
2023-02-19T05:23:32.726Z,3.50
2023-02-19T05:25:59.779Z,3.40
2023-02-19T05:28:29.011Z,3.50
2023-02-19T05:30:57.608Z,3.40
2023-02-19T05:33:26.257Z,3.40
2023-02-19T05:35:55.475Z,3.40
2023-02-19T05:38:23.648Z,3.40
2023-02-19T05:40:51.346Z,3.30
2023-02-19T05:43:18.622Z,3.30
2023-02-19T05:45:45.888Z,3.30
2023-02-19T05:48:13.094Z,3.30
2023-02-19T05:50:40.253Z,3.30
2023-02-19T05:53:13.354Z,3.30
2023-02-19T05:55:40.420Z,3.30
2023-02-19T05:58:07.522Z,3.40
2023-02-19T06:00:34.581Z,3.30
2023-02-19T06:03:02.205Z,3.30
2023-02-19T06:05:29.306Z,3.30
2023-02-19T06:07:56.444Z,3.20
2023-02-19T06:10:23.653Z,3.30
2023-02-19T06:12:53.979Z,3.20
2023-02-19T06:15:21.695Z,3.20
2023-02-19T06:17:49.134Z,3.20
2023-02-19T06:20:16.509Z,3.20
2023-02-19T06:22:43.632Z,3.20
2023-02-19T06:25:12.635Z,3.20
2023-02-19T06:27:39.898Z,3.20
2023-02-19T06:30:07.882Z,3.20
2023-02-19T06:32:35.033Z,3.20
2023-02-19T06:35:02.423Z,3.20
2023-02-19T06:37:30.273Z,3.20
2023-02-19T06:39:57.480Z,3.10
2023-02-19T06:42:24.637Z,3.10
2023-02-19T06:44:51.821Z,3.20
2023-02-19T06:47:19.549Z,3.10
2023-02-19T06:49:46.662Z,3.20
2023-02-19T06:52:13.753Z,3.20
2023-02-19T06:54:40.884Z,3.20
2023-02-19T06:57:08.201Z,3.20
2023-02-19T06:59:35.383Z,3.10
2023-02-19T07:02:02.912Z,3.20
2023-02-19T07:04:30.155Z,3.20
2023-02-19T07:06:57.457Z,3.20
2023-02-19T07:09:25.433Z,3.20
2023-02-19T07:11:52.716Z,3.30
2023-02-19T07:14:20.951Z,3.20
2023-02-19T07:16:48.574Z,3.20
2023-02-19T07:19:16.705Z,3.20
2023-02-19T07:21:43.851Z,3.20
2023-02-19T07:24:10.995Z,3.20
2023-02-19T07:26:38.417Z,3.30
2023-02-19T07:29:05.926Z,3.30
2023-02-19T07:31:33.356Z,3.30
2023-02-19T07:34:00.592Z,3.30
2023-02-19T07:36:27.913Z,3.30
2023-02-19T07:38:57.138Z,3.30
2023-02-19T07:41:26.410Z,3.40
2023-02-19T07:43:57.120Z,3.40
2023-02-19T07:46:24.740Z,3.60
2023-02-19T07:48:51.859Z,3.40
2023-02-19T07:51:20.672Z,3.50
2023-02-19T07:53:52.255Z,3.50
2023-02-19T07:56:20.994Z,3.50
2023-02-19T07:58:48.236Z,3.50
2023-02-19T08:01:18.947Z,3.50
2023-02-19T08:03:48.212Z,3.60
2023-02-19T08:06:16.613Z,3.60
2023-02-19T08:08:43.798Z,3.60
2023-02-19T08:11:29.311Z,3.70
2023-02-19T08:13:56.429Z,3.70
2023-02-19T08:16:40.692Z,3.70
2023-02-19T08:19:09.658Z,3.70
2023-02-19T08:21:36.847Z,3.60
2023-02-19T08:24:04.480Z,3.60
2023-02-19T08:26:32.730Z,3.60
2023-02-19T08:28:59.980Z,3.70
2023-02-19T08:31:27.575Z,3.70
2023-02-19T08:33:54.875Z,3.70
2023-02-19T08:36:22.108Z,3.70
2023-02-19T08:38:49.467Z,3.80
2023-02-19T08:41:16.611Z,3.80
2023-02-19T08:43:44.227Z,3.80
2023-02-19T08:46:13.053Z,3.90
2023-02-19T08:48:41.494Z,3.90
2023-02-19T08:51:11.774Z,3.80
2023-02-19T08:53:40.266Z,4.10
2023-02-19T08:56:16.574Z,4.00
2023-02-19T08:58:44.344Z,4.10
2023-02-19T09:01:15.599Z,4.20
2023-02-19T09:03:42.945Z,4.30
2023-02-19T09:06:19.819Z,4.30
2023-02-19T09:08:47.374Z,4.30
2023-02-19T09:11:15.038Z,4.40
2023-02-19T09:13:42.994Z,4.50
2023-02-19T09:16:11.176Z,4.60
2023-02-19T09:18:38.527Z,4.80
2023-02-19T09:21:06.708Z,4.80
2023-02-19T09:23:35.840Z,5.00
2023-02-19T09:26:07.590Z,5.20
2023-02-19T09:28:35.042Z,5.40
2023-02-19T09:31:15.705Z,5.60
2023-02-19T09:33:44.951Z,5.70
2023-02-19T09:36:14.148Z,5.90
2023-02-19T09:38:41.634Z,6.10
2023-02-19T09:41:30.093Z,6.30
2023-02-19T09:44:03.336Z,6.30
2023-02-19T09:46:47.207Z,6.20
2023-02-19T09:49:33.003Z,6.20
2023-02-19T09:52:06.607Z,6.10
2023-02-19T09:54:36.514Z,5.80
2023-02-19T09:57:04.823Z,5.60
2023-02-19T09:59:46.942Z,5.40
2023-02-19T10:02:19.597Z,5.30
2023-02-19T10:04:48.879Z,5.20
2023-02-19T10:07:23.717Z,5.10
2023-02-19T10:09:59.224Z,5.10
2023-02-19T10:12:30.796Z,5.10
2023-02-19T10:15:16.061Z,5.10
2023-02-19T10:17:43.197Z,5.10
2023-02-19T10:20:17.294Z,5.20
2023-02-19T10:22:44.828Z,5.20
2023-02-19T10:25:16.623Z,5.20
2023-02-19T10:27:44.698Z,5.20
2023-02-19T10:30:22.148Z,5.30
2023-02-19T10:33:15.896Z,5.30
2023-02-19T10:36:04.259Z,5.40
2023-02-19T10:38:40.643Z,5.30
2023-02-19T10:41:13.463Z,5.30
2023-02-19T10:44:16.541Z,5.30
2023-02-19T10:46:50.610Z,5.40
2023-02-19T10:49:32.138Z,5.30
2023-02-19T10:52:10.295Z,5.40
2023-02-19T10:54:37.636Z,5.40
2023-02-19T10:57:21.281Z,5.60
2023-02-19T10:59:57.947Z,5.80
2023-02-19T11:02:26.647Z,5.80
2023-02-19T11:05:20.015Z,6.60
2023-02-19T11:07:49.885Z,5.80
2023-02-19T11:10:42.197Z,5.80
2023-02-19T11:13:18.309Z,6.00
2023-02-19T11:15:53.313Z,6.40
2023-02-19T11:18:26.717Z,6.90
2023-02-19T11:20:58.382Z,7.60
2023-02-19T11:23:30.911Z,8.20
2023-02-19T11:26:02.937Z,8.90
2023-02-19T11:28:40.089Z,9.90
2023-02-19T11:31:35.433Z,11.20
2023-02-19T11:34:29.324Z,12.40
2023-02-19T11:37:17.242Z,13.60
2023-02-19T11:39:50.234Z,14.30
2023-02-19T11:42:42.795Z,14.20
2023-02-19T11:45:36.015Z,13.70
2023-02-19T11:48:31.539Z,13.10
2023-02-19T11:51:36.205Z,12.50
2023-02-19T11:54:26.121Z,12.40
2023-02-19T11:57:20.002Z,12.60
2023-02-19T12:00:22.682Z,12.40
2023-02-19T12:03:12.832Z,12.70
2023-02-19T12:05:57.582Z,13.40
2023-02-19T12:08:40.220Z,14.00
2023-02-19T12:11:32.517Z,14.70
2023-02-19T12:14:33.783Z,14.40
2023-02-19T12:17:49.864Z,14.70
2023-02-19T12:20:50.593Z,15.20
2023-02-19T12:24:16.370Z,14.60
2023-02-19T12:27:00.210Z,14.80
2023-02-19T12:29:42.832Z,15.80
2023-02-19T12:32:26.001Z,15.10
2023-02-19T12:35:41.632Z,15.40
2023-02-19T12:38:35.415Z,15.40
2023-02-19T12:41:25.368Z,15.10
2023-02-19T12:44:03.500Z,14.20
2023-02-19T12:46:40.282Z,14.40
2023-02-19T12:49:21.640Z,14.40
2023-02-19T12:52:06.429Z,15.00
2023-02-19T12:54:44.634Z,15.40
2023-02-19T12:57:35.088Z,15.70
2023-02-19T13:00:43.102Z,16.80
2023-02-19T13:03:35.679Z,17.50
2023-02-19T13:06:30.632Z,18.00
2023-02-19T13:09:08.071Z,18.70
2023-02-19T13:12:23.111Z,19.00
2023-02-19T13:15:00.691Z,18.90
2023-02-19T13:17:51.489Z,18.70
2023-02-19T13:20:27.153Z,18.70
2023-02-19T13:23:54.962Z,19.30
2023-02-19T13:26:46.662Z,19.50
2023-02-19T13:29:54.706Z,18.80
2023-02-19T13:32:33.575Z,18.50
2023-02-19T13:35:44.800Z,17.90
2023-02-19T13:38:13.601Z,17.20
2023-02-19T13:40:43.449Z,16.30
2023-02-19T13:43:35.273Z,15.80
2023-02-19T13:46:15.516Z,16.30
2023-02-19T13:48:44.372Z,16.90
2023-02-19T13:51:18.829Z,17.00
2023-02-19T13:53:45.907Z,17.30
2023-02-19T13:56:34.280Z,17.00
2023-02-19T13:59:36.088Z,17.20
2023-02-19T14:02:06.438Z,17.00
2023-02-19T14:04:54.602Z,16.20
2023-02-19T14:07:27.601Z,15.40
2023-02-19T14:09:55.210Z,15.80
2023-02-19T14:12:32.990Z,15.40
2023-02-19T14:15:43.314Z,15.90
2023-02-19T14:18:46.140Z,16.20
2023-02-19T14:21:27.952Z,16.00
2023-02-19T14:23:58.323Z,15.70
2023-02-19T14:26:26.717Z,15.40
2023-02-19T14:28:54.498Z,14.40
2023-02-19T14:31:30.668Z,14.40
2023-02-19T14:34:06.647Z,14.80
2023-02-19T14:36:47.833Z,15.40
2023-02-19T14:39:25.138Z,15.60
2023-02-19T14:42:17.789Z,14.80
2023-02-19T14:44:54.020Z,14.10
2023-02-19T14:47:24.852Z,13.80
2023-02-19T14:49:57.675Z,12.60
2023-02-19T14:52:32.374Z,11.40
2023-02-19T14:55:16.370Z,10.00
2023-02-19T14:57:49.444Z,9.20
2023-02-19T15:00:22.798Z,8.40
2023-02-19T15:02:56.649Z,7.90
2023-02-19T15:05:38.901Z,7.70
2023-02-19T15:08:24.656Z,7.70
2023-02-19T15:10:52.078Z,7.60
2023-02-19T15:13:28.404Z,7.30
2023-02-19T15:15:55.783Z,7.00
2023-02-19T15:18:26.386Z,7.00
2023-02-19T15:21:05.677Z,6.90
2023-02-19T15:23:35.770Z,6.90
2023-02-19T15:26:04.090Z,6.90
2023-02-19T15:28:34.265Z,6.80
2023-02-19T15:31:02.119Z,6.80
2023-02-19T15:33:29.210Z,6.70
2023-02-19T15:36:08.692Z,6.70
2023-02-19T15:38:36.299Z,6.60
2023-02-19T15:41:03.573Z,6.60
2023-02-19T15:43:56.947Z,6.60
2023-02-19T15:46:25.874Z,6.50
2023-02-19T15:49:14.741Z,6.50
2023-02-19T15:51:50.032Z,6.40
2023-02-19T15:54:35.286Z,6.30
2023-02-19T15:57:13.944Z,6.20
2023-02-19T16:00:07.231Z,6.20
2023-02-19T16:02:40.312Z,6.20
2023-02-19T16:05:23.650Z,6.10
2023-02-19T16:08:10.834Z,6.00
2023-02-19T16:10:38.862Z,5.90
2023-02-19T16:13:09.690Z,5.80
2023-02-19T16:15:39.141Z,5.70
2023-02-19T16:18:06.500Z,5.70
2023-02-19T16:20:35.432Z,5.60
2023-02-19T16:23:20.746Z,5.60
2023-02-19T16:25:48.940Z,5.50
2023-02-19T16:28:24.363Z,5.50
2023-02-19T16:31:08.275Z,5.40
2023-02-19T16:33:49.895Z,5.30
2023-02-19T16:36:41.695Z,5.10
2023-02-19T16:39:12.967Z,5.20
2023-02-19T16:42:00.022Z,5.20
2023-02-19T16:44:31.159Z,5.00
2023-02-19T16:47:17.019Z,4.90
2023-02-19T16:49:44.274Z,4.80
2023-02-19T16:52:15.914Z,4.70
2023-02-19T16:54:43.376Z,4.60
2023-02-19T16:57:10.572Z,4.60
2023-02-19T16:59:37.816Z,4.50
2023-02-19T17:02:09.388Z,4.40
2023-02-19T17:04:36.590Z,4.40
2023-02-19T17:07:03.804Z,4.70
2023-02-19T17:09:30.963Z,4.30
2023-02-19T17:11:58.083Z,4.30
2023-02-19T17:14:25.246Z,4.20
2023-02-19T17:16:52.585Z,4.20
2023-02-19T17:19:20.726Z,4.10
2023-02-19T17:21:48.111Z,4.10
2023-02-19T17:24:15.766Z,4.00
2023-02-19T17:26:43.095Z,4.00
2023-02-19T17:29:15.507Z,4.00
2023-02-19T17:31:42.895Z,4.00
2023-02-19T17:34:10.517Z,4.10
2023-02-19T17:36:38.081Z,4.10
2023-02-19T17:39:07.250Z,4.10
2023-02-19T17:41:34.554Z,4.00
2023-02-19T17:44:01.902Z,4.10
2023-02-19T17:46:29.094Z,4.20
2023-02-19T17:48:56.280Z,4.20
2023-02-19T17:51:23.795Z,4.10
2023-02-19T17:53:50.966Z,4.10
2023-02-19T17:56:26.274Z,4.10
2023-02-19T17:58:55.143Z,4.00
2023-02-19T18:01:22.579Z,4.00
2023-02-19T18:03:51.248Z,4.00
2023-02-19T18:06:19.255Z,4.00
2023-02-19T18:08:51.329Z,4.10
2023-02-19T18:11:19.410Z,4.00
2023-02-19T18:13:48.061Z,4.10
2023-02-19T18:16:17.850Z,4.20
2023-02-19T18:18:45.633Z,4.30
2023-02-19T18:21:14.144Z,4.30
2023-02-19T18:23:42.022Z,4.40
2023-02-19T18:26:10.886Z,4.50
2023-02-19T18:28:38.988Z,4.60
2023-02-19T18:31:06.982Z,4.70
2023-02-19T18:33:35.283Z,4.80
2023-02-19T18:36:02.945Z,5.90
2023-02-19T18:38:30.208Z,4.90
2023-02-19T18:40:58.753Z,5.00
2023-02-19T18:43:26.394Z,5.00
2023-02-19T18:45:53.672Z,5.00
2023-02-19T18:48:20.888Z,5.10
2023-02-19T18:50:47.995Z,5.10
2023-02-19T18:53:15.283Z,5.10
2023-02-19T18:55:42.398Z,5.10
2023-02-19T18:58:09.527Z,5.10
2023-02-19T19:00:36.790Z,5.10
2023-02-19T19:03:04.069Z,5.10
2023-02-19T19:05:31.286Z,5.00
2023-02-19T19:08:01.894Z,5.00
2023-02-19T19:10:30.723Z,5.00
2023-02-19T19:12:58.548Z,4.90
2023-02-19T19:15:26.440Z,4.90
2023-02-19T19:17:54.424Z,4.90
2023-02-19T19:20:23.930Z,5.00
2023-02-19T19:22:52.832Z,4.80
2023-02-19T19:25:21.635Z,4.80
2023-02-19T19:27:52.347Z,4.80
2023-02-19T19:30:20.534Z,4.70
2023-02-19T19:32:49.738Z,4.70
2023-02-19T19:35:18.609Z,4.70
2023-02-19T19:37:45.858Z,4.70
2023-02-19T19:40:13.367Z,4.70
2023-02-19T19:42:42.007Z,4.70
2023-02-19T19:45:11.826Z,4.60
2023-02-19T19:47:39.071Z,4.60
2023-02-19T19:50:06.599Z,4.60
2023-02-19T19:52:33.737Z,4.60
2023-02-19T19:55:00.933Z,4.60
2023-02-19T19:57:28.160Z,4.50
2023-02-19T19:59:55.349Z,4.40
2023-02-19T20:02:23.743Z,4.50
2023-02-19T20:04:51.096Z,4.50
2023-02-19T20:07:18.397Z,4.10
2023-02-19T20:09:50.014Z,4.40
2023-02-19T20:12:17.946Z,4.40
2023-02-19T20:14:46.819Z,4.40
2023-02-19T20:17:15.038Z,4.30
2023-02-19T20:19:42.328Z,4.40
2023-02-19T20:22:09.449Z,4.30
2023-02-19T20:24:36.585Z,4.40
2023-02-19T20:27:04.525Z,4.40
2023-02-19T20:29:34.302Z,4.30
2023-02-19T20:32:02.592Z,4.30
2023-02-19T20:34:30.521Z,4.30
2023-02-19T20:36:58.753Z,4.20
2023-02-19T20:39:29.026Z,4.20
2023-02-19T20:41:57.791Z,4.20
2023-02-19T20:44:27.375Z,4.20
2023-02-19T20:46:56.620Z,4.20
2023-02-19T20:49:28.086Z,4.10
2023-02-19T20:51:59.034Z,4.10
2023-02-19T20:54:33.478Z,4.10
2023-02-19T20:57:03.957Z,4.10
2023-02-19T20:59:35.418Z,4.10
2023-02-19T21:02:05.651Z,4.00
2023-02-19T21:04:34.000Z,4.00
2023-02-19T21:07:01.234Z,3.90
2023-02-19T21:09:28.468Z,3.90
2023-02-19T21:11:55.864Z,3.90
2023-02-19T21:14:22.995Z,3.90
2023-02-19T21:16:50.082Z,3.80
2023-02-19T21:19:17.134Z,3.80
2023-02-19T21:21:44.327Z,3.70
2023-02-19T21:24:14.096Z,3.80
2023-02-19T21:26:42.956Z,3.80
2023-02-19T21:29:15.796Z,3.70
2023-02-19T21:31:47.661Z,3.80
2023-02-19T21:34:19.223Z,3.70
2023-02-19T21:36:47.181Z,3.70
2023-02-19T21:39:18.480Z,3.70
2023-02-19T21:41:46.585Z,3.80
2023-02-19T21:44:14.081Z,3.90
2023-02-19T21:46:41.514Z,3.80
2023-02-19T21:49:09.195Z,3.70
2023-02-19T21:51:40.289Z,3.80
2023-02-19T21:54:09.421Z,3.80
2023-02-19T21:56:37.019Z,3.80
2023-02-19T21:59:04.987Z,3.80
2023-02-19T22:01:38.563Z,3.80
2023-02-19T22:04:14.205Z,3.90
2023-02-19T22:06:41.819Z,3.90
2023-02-19T22:09:10.648Z,4.00
2023-02-19T22:11:38.190Z,4.00
2023-02-19T22:14:05.342Z,4.00
2023-02-19T22:16:32.511Z,4.00
2023-02-19T22:19:00.659Z,4.00
2023-02-19T22:21:32.897Z,4.10
2023-02-19T22:24:06.184Z,4.10
2023-02-19T22:26:35.713Z,4.10
2023-02-19T22:29:08.545Z,4.20
2023-02-19T22:31:36.666Z,4.20
2023-02-19T22:34:04.822Z,4.20
2023-02-19T22:36:34.525Z,4.20
2023-02-19T22:39:02.995Z,4.30
2023-02-19T22:41:30.763Z,4.30
2023-02-19T22:44:00.043Z,4.30
2023-02-19T22:46:30.552Z,4.30
2023-02-19T22:49:02.422Z,4.30
2023-02-19T22:51:30.366Z,4.40
2023-02-19T22:53:59.609Z,4.40
2023-02-19T22:56:32.831Z,4.40
2023-02-19T22:59:00.016Z,4.40
2023-02-19T23:01:27.337Z,4.40
2023-02-19T23:03:58.126Z,4.50
2023-02-19T23:06:33.914Z,4.40
2023-02-19T23:09:11.103Z,4.50
2023-02-19T23:11:39.224Z,4.50
2023-02-19T23:14:07.572Z,4.50
2023-02-19T23:16:37.419Z,4.50
2023-02-19T23:19:11.446Z,4.50
2023-02-19T23:21:43.888Z,4.60
2023-02-19T23:24:12.437Z,4.60
2023-02-19T23:26:49.170Z,4.60
2023-02-19T23:29:20.911Z,4.60
2023-02-19T23:31:48.119Z,4.60
2023-02-19T23:34:15.885Z,4.60
2023-02-19T23:36:46.645Z,4.60
2023-02-19T23:39:16.445Z,4.60
2023-02-19T23:41:56.569Z,4.60
2023-02-19T23:44:25.300Z,4.70
2023-02-19T23:46:52.963Z,4.70
2023-02-19T23:49:20.267Z,4.70
2023-02-19T23:51:47.637Z,5.70
2023-02-19T23:54:14.838Z,5.20
2023-02-19T23:56:41.886Z,4.70
2023-02-19T23:59:09.299Z,4.70
